sensor_id;sensor_type;location;lat;lon;timestamp;temperature;humidity
10133;DHT22;5106;50.926;7.080;2023-03-23T00:01:09;13.00;76.40
10133;DHT22;5106;50.926;7.080;2023-03-23T00:03:45;13.00;76.60
10133;DHT22;5106;50.926;7.080;2023-03-23T00:06:11;13.00;76.60
10133;DHT22;5106;50.926;7.080;2023-03-23T00:08:46;13.00;76.40
10133;DHT22;5106;50.926;7.080;2023-03-23T00:11:17;13.00;76.40
10133;DHT22;5106;50.926;7.080;2023-03-23T00:13:48;13.10;76.00
10133;DHT22;5106;50.926;7.080;2023-03-23T00:16:22;13.10;76.40
10133;DHT22;5106;50.926;7.080;2023-03-23T00:18:55;13.10;76.20
10133;DHT22;5106;50.926;7.080;2023-03-23T00:21:29;13.00;76.20
10133;DHT22;5106;50.926;7.080;2023-03-23T00:24:08;13.00;76.50
10133;DHT22;5106;50.926;7.080;2023-03-23T00:26:36;13.00;76.60
10133;DHT22;5106;50.926;7.080;2023-03-23T00:29:11;13.00;76.70
10133;DHT22;5106;50.926;7.080;2023-03-23T00:31:39;13.00;76.70
10133;DHT22;5106;50.926;7.080;2023-03-23T00:34:05;13.00;76.50
10133;DHT22;5106;50.926;7.080;2023-03-23T00:36:32;13.00;76.30
10133;DHT22;5106;50.926;7.080;2023-03-23T00:39:03;13.00;76.70
10133;DHT22;5106;50.926;7.080;2023-03-23T00:41:30;13.00;76.50
10133;DHT22;5106;50.926;7.080;2023-03-23T00:43:57;13.00;76.70
10133;DHT22;5106;50.926;7.080;2023-03-23T00:46:24;13.00;76.70
10133;DHT22;5106;50.926;7.080;2023-03-23T00:48:50;13.00;76.80
10133;DHT22;5106;50.926;7.080;2023-03-23T00:51:18;13.00;76.70
10133;DHT22;5106;50.926;7.080;2023-03-23T00:53:44;13.00;76.70
10133;DHT22;5106;50.926;7.080;2023-03-23T00:56:10;13.00;76.90
10133;DHT22;5106;50.926;7.080;2023-03-23T00:58:36;13.00;77.10
10133;DHT22;5106;50.926;7.080;2023-03-23T01:01:02;13.00;76.90
10133;DHT22;5106;50.926;7.080;2023-03-23T01:03:28;13.00;76.80
10133;DHT22;5106;50.926;7.080;2023-03-23T01:05:55;12.90;76.90
10133;DHT22;5106;50.926;7.080;2023-03-23T01:08:22;13.00;76.80
10133;DHT22;5106;50.926;7.080;2023-03-23T01:10:48;12.90;77.00
10133;DHT22;5106;50.926;7.080;2023-03-23T01:13:14;12.90;77.50
10133;DHT22;5106;50.926;7.080;2023-03-23T01:15:41;12.90;77.80
10133;DHT22;5106;50.926;7.080;2023-03-23T01:18:07;12.80;78.00
10133;DHT22;5106;50.926;7.080;2023-03-23T01:20:35;12.70;78.20
10133;DHT22;5106;50.926;7.080;2023-03-23T01:23:01;12.70;78.70
10133;DHT22;5106;50.926;7.080;2023-03-23T01:25:29;12.60;79.00
10133;DHT22;5106;50.926;7.080;2023-03-23T01:27:55;12.50;79.30
10133;DHT22;5106;50.926;7.080;2023-03-23T01:30:21;12.50;79.30
10133;DHT22;5106;50.926;7.080;2023-03-23T01:32:47;12.50;79.30
10133;DHT22;5106;50.926;7.080;2023-03-23T01:35:13;12.40;79.40
10133;DHT22;5106;50.926;7.080;2023-03-23T01:37:39;12.40;79.50
10133;DHT22;5106;50.926;7.080;2023-03-23T01:40:05;12.30;79.50
10133;DHT22;5106;50.926;7.080;2023-03-23T01:42:33;12.30;79.60
10133;DHT22;5106;50.926;7.080;2023-03-23T01:47:56;12.30;79.70
10133;DHT22;5106;50.926;7.080;2023-03-23T01:50:24;12.30;79.70
10133;DHT22;5106;50.926;7.080;2023-03-23T01:52:52;12.30;79.20
10133;DHT22;5106;50.926;7.080;2023-03-23T01:55:20;12.30;79.50
10133;DHT22;5106;50.926;7.080;2023-03-23T01:57:47;12.30;79.90
10133;DHT22;5106;50.926;7.080;2023-03-23T02:00:13;12.20;80.30
10133;DHT22;5106;50.926;7.080;2023-03-23T02:02:44;12.20;80.80
10133;DHT22;5106;50.926;7.080;2023-03-23T02:05:15;12.10;80.90
10133;DHT22;5106;50.926;7.080;2023-03-23T02:07:45;12.00;81.20
10133;DHT22;5106;50.926;7.080;2023-03-23T02:10:11;11.90;81.10
10133;DHT22;5106;50.926;7.080;2023-03-23T02:12:37;11.90;81.30
10133;DHT22;5106;50.926;7.080;2023-03-23T02:15:03;11.80;81.40
10133;DHT22;5106;50.926;7.080;2023-03-23T02:17:45;11.80;81.10
10133;DHT22;5106;50.926;7.080;2023-03-23T02:25:59;11.70;81.50
10133;DHT22;5106;50.926;7.080;2023-03-23T02:28:36;11.70;81.10
10133;DHT22;5106;50.926;7.080;2023-03-23T02:36:56;11.60;81.60
10133;DHT22;5106;50.926;7.080;2023-03-23T02:39:25;11.60;81.70
10133;DHT22;5106;50.926;7.080;2023-03-23T02:42:00;11.50;81.70
10133;DHT22;5106;50.926;7.080;2023-03-23T02:44:29;11.50;81.80
10133;DHT22;5106;50.926;7.080;2023-03-23T02:46:58;11.50;81.90
10133;DHT22;5106;50.926;7.080;2023-03-23T02:49:27;11.50;81.80
10133;DHT22;5106;50.926;7.080;2023-03-23T02:51:54;11.50;81.80
10133;DHT22;5106;50.926;7.080;2023-03-23T02:54:21;11.50;81.90
10133;DHT22;5106;50.926;7.080;2023-03-23T02:56:48;11.40;81.80
10133;DHT22;5106;50.926;7.080;2023-03-23T02:59:16;11.50;81.70
10133;DHT22;5106;50.926;7.080;2023-03-23T03:04:15;11.40;81.40
10133;DHT22;5106;50.926;7.080;2023-03-23T03:06:47;11.50;81.30
10133;DHT22;5106;50.926;7.080;2023-03-23T03:15:20;11.60;81.00
10133;DHT22;5106;50.926;7.080;2023-03-23T03:18:00;11.60;81.00
10133;DHT22;5106;50.926;7.080;2023-03-23T03:20:28;11.60;80.80
10133;DHT22;5106;50.926;7.080;2023-03-23T03:22:56;11.70;80.70
10133;DHT22;5106;50.926;7.080;2023-03-23T03:25:23;11.70;80.70
10133;DHT22;5106;50.926;7.080;2023-03-23T03:27:50;11.70;80.80
10133;DHT22;5106;50.926;7.080;2023-03-23T03:30:21;11.70;80.70
10133;DHT22;5106;50.926;7.080;2023-03-23T03:32:50;11.70;80.70
10133;DHT22;5106;50.926;7.080;2023-03-23T03:35:22;11.70;80.70
10133;DHT22;5106;50.926;7.080;2023-03-23T03:37:48;11.70;80.70
10133;DHT22;5106;50.926;7.080;2023-03-23T03:40:16;11.70;80.50
10133;DHT22;5106;50.926;7.080;2023-03-23T03:42:44;11.70;80.50
10133;DHT22;5106;50.926;7.080;2023-03-23T03:45:12;11.70;80.60
10133;DHT22;5106;50.926;7.080;2023-03-23T03:47:38;11.70;80.50
10133;DHT22;5106;50.926;7.080;2023-03-23T03:50:04;11.70;80.70
10133;DHT22;5106;50.926;7.080;2023-03-23T03:52:31;11.70;80.70
10133;DHT22;5106;50.926;7.080;2023-03-23T03:54:57;11.70;80.70
10133;DHT22;5106;50.926;7.080;2023-03-23T03:57:23;11.70;80.60
10133;DHT22;5106;50.926;7.080;2023-03-23T03:59:49;11.70;80.60
10133;DHT22;5106;50.926;7.080;2023-03-23T04:02:16;11.70;80.70
10133;DHT22;5106;50.926;7.080;2023-03-23T04:04:46;11.70;80.80
10133;DHT22;5106;50.926;7.080;2023-03-23T04:07:12;11.70;80.60
10133;DHT22;5106;50.926;7.080;2023-03-23T04:09:42;11.70;80.70
10133;DHT22;5106;50.926;7.080;2023-03-23T04:12:08;11.60;80.90
10133;DHT22;5106;50.926;7.080;2023-03-23T04:14:34;11.70;80.80
10133;DHT22;5106;50.926;7.080;2023-03-23T04:17:00;11.60;80.80
10133;DHT22;5106;50.926;7.080;2023-03-23T04:19:26;11.60;80.90
10133;DHT22;5106;50.926;7.080;2023-03-23T04:21:54;11.60;80.90
10133;DHT22;5106;50.926;7.080;2023-03-23T04:24:20;11.70;80.70
10133;DHT22;5106;50.926;7.080;2023-03-23T04:26:47;11.60;80.70
10133;DHT22;5106;50.926;7.080;2023-03-23T04:29:13;11.70;80.80
10133;DHT22;5106;50.926;7.080;2023-03-23T04:31:39;11.70;80.80
10133;DHT22;5106;50.926;7.080;2023-03-23T04:34:05;11.70;80.80
10133;DHT22;5106;50.926;7.080;2023-03-23T04:36:31;11.70;80.70
10133;DHT22;5106;50.926;7.080;2023-03-23T04:38:59;11.70;80.70
10133;DHT22;5106;50.926;7.080;2023-03-23T04:41:26;11.70;80.80
10133;DHT22;5106;50.926;7.080;2023-03-23T04:43:52;11.70;80.80
10133;DHT22;5106;50.926;7.080;2023-03-23T04:46:19;11.70;80.80
10133;DHT22;5106;50.926;7.080;2023-03-23T04:48:47;11.70;80.80
10133;DHT22;5106;50.926;7.080;2023-03-23T04:51:12;11.70;80.80
10133;DHT22;5106;50.926;7.080;2023-03-23T04:53:39;11.70;80.90
10133;DHT22;5106;50.926;7.080;2023-03-23T04:56:05;11.70;80.80
10133;DHT22;5106;50.926;7.080;2023-03-23T04:58:30;11.70;80.80
10133;DHT22;5106;50.926;7.080;2023-03-23T05:00:59;11.80;80.70
10133;DHT22;5106;50.926;7.080;2023-03-23T05:03:25;11.80;80.70
10133;DHT22;5106;50.926;7.080;2023-03-23T05:05:52;11.80;80.60
10133;DHT22;5106;50.926;7.080;2023-03-23T05:08:22;11.80;80.60
10133;DHT22;5106;50.926;7.080;2023-03-23T05:10:53;11.80;80.70
10133;DHT22;5106;50.926;7.080;2023-03-23T05:13:19;11.80;80.70
10133;DHT22;5106;50.926;7.080;2023-03-23T05:15:45;11.80;80.70
10133;DHT22;5106;50.926;7.080;2023-03-23T05:18:11;11.80;80.70
10133;DHT22;5106;50.926;7.080;2023-03-23T05:20:37;11.80;80.80
10133;DHT22;5106;50.926;7.080;2023-03-23T05:23:02;11.80;80.70
10133;DHT22;5106;50.926;7.080;2023-03-23T05:25:28;11.80;80.80
10133;DHT22;5106;50.926;7.080;2023-03-23T05:27:54;11.80;80.70
10133;DHT22;5106;50.926;7.080;2023-03-23T05:30:20;11.80;80.80
10133;DHT22;5106;50.926;7.080;2023-03-23T05:32:47;11.80;80.70
10133;DHT22;5106;50.926;7.080;2023-03-23T05:35:16;11.80;80.70
10133;DHT22;5106;50.926;7.080;2023-03-23T05:37:43;11.80;80.70
10133;DHT22;5106;50.926;7.080;2023-03-23T05:40:09;11.80;80.60
10133;DHT22;5106;50.926;7.080;2023-03-23T05:42:35;11.80;80.70
10133;DHT22;5106;50.926;7.080;2023-03-23T05:45:04;11.80;80.70
10133;DHT22;5106;50.926;7.080;2023-03-23T05:47:30;11.80;80.70
10133;DHT22;5106;50.926;7.080;2023-03-23T05:49:56;11.80;80.60
10133;DHT22;5106;50.926;7.080;2023-03-23T05:52:22;11.80;80.60
10133;DHT22;5106;50.926;7.080;2023-03-23T05:54:50;11.80;80.60
10133;DHT22;5106;50.926;7.080;2023-03-23T05:57:16;11.80;80.60
10133;DHT22;5106;50.926;7.080;2023-03-23T05:59:42;11.80;80.60
10133;DHT22;5106;50.926;7.080;2023-03-23T06:02:08;11.80;80.60
10133;DHT22;5106;50.926;7.080;2023-03-23T06:04:35;11.80;80.50
10133;DHT22;5106;50.926;7.080;2023-03-23T06:07:03;11.80;80.60
10133;DHT22;5106;50.926;7.080;2023-03-23T06:09:29;11.80;80.60
10133;DHT22;5106;50.926;7.080;2023-03-23T06:11:55;11.80;80.50
10133;DHT22;5106;50.926;7.080;2023-03-23T06:14:20;11.80;80.50
10133;DHT22;5106;50.926;7.080;2023-03-23T06:16:46;11.80;80.40
10133;DHT22;5106;50.926;7.080;2023-03-23T06:19:13;11.80;80.30
10133;DHT22;5106;50.926;7.080;2023-03-23T06:21:40;11.80;80.30
10133;DHT22;5106;50.926;7.080;2023-03-23T06:24:05;11.80;80.30
10133;DHT22;5106;50.926;7.080;2023-03-23T06:26:37;11.90;80.20
10133;DHT22;5106;50.926;7.080;2023-03-23T06:29:04;11.90;80.00
10133;DHT22;5106;50.926;7.080;2023-03-23T06:31:41;11.90;80.00
10133;DHT22;5106;50.926;7.080;2023-03-23T06:34:08;12.00;80.10
10133;DHT22;5106;50.926;7.080;2023-03-23T06:36:35;12.00;80.10
10133;DHT22;5106;50.926;7.080;2023-03-23T06:39:02;12.00;80.00
10133;DHT22;5106;50.926;7.080;2023-03-23T06:41:31;12.00;79.70
10133;DHT22;5106;50.926;7.080;2023-03-23T06:43:58;12.10;79.60
10133;DHT22;5106;50.926;7.080;2023-03-23T06:46:23;12.10;79.40
10133;DHT22;5106;50.926;7.080;2023-03-23T06:48:49;12.10;79.50
10133;DHT22;5106;50.926;7.080;2023-03-23T06:51:16;12.10;79.40
10133;DHT22;5106;50.926;7.080;2023-03-23T06:53:42;12.20;79.40
10133;DHT22;5106;50.926;7.080;2023-03-23T06:56:08;12.20;79.20
10133;DHT22;5106;50.926;7.080;2023-03-23T06:58:34;12.30;79.00
10133;DHT22;5106;50.926;7.080;2023-03-23T07:01:00;12.30;78.90
10133;DHT22;5106;50.926;7.080;2023-03-23T07:03:26;12.30;78.90
10133;DHT22;5106;50.926;7.080;2023-03-23T07:05:53;12.30;78.60
10133;DHT22;5106;50.926;7.080;2023-03-23T07:08:19;12.40;78.20
10133;DHT22;5106;50.926;7.080;2023-03-23T07:10:46;12.40;77.70
10133;DHT22;5106;50.926;7.080;2023-03-23T07:13:11;12.50;77.10
10133;DHT22;5106;50.926;7.080;2023-03-23T07:15:38;12.60;77.00
10133;DHT22;5106;50.926;7.080;2023-03-23T07:18:04;12.60;77.40
10133;DHT22;5106;50.926;7.080;2023-03-23T07:20:30;12.60;77.70
10133;DHT22;5106;50.926;7.080;2023-03-23T07:22:55;12.60;77.70
10133;DHT22;5106;50.926;7.080;2023-03-23T07:25:21;12.60;77.10
10133;DHT22;5106;50.926;7.080;2023-03-23T07:27:47;12.70;77.30
10133;DHT22;5106;50.926;7.080;2023-03-23T07:30:13;12.70;77.40
10133;DHT22;5106;50.926;7.080;2023-03-23T07:32:40;12.70;77.00
10133;DHT22;5106;50.926;7.080;2023-03-23T07:35:07;12.70;77.20
10133;DHT22;5106;50.926;7.080;2023-03-23T07:37:33;12.80;76.60
10133;DHT22;5106;50.926;7.080;2023-03-23T07:39:59;12.80;76.30
10133;DHT22;5106;50.926;7.080;2023-03-23T07:42:25;12.90;76.10
10133;DHT22;5106;50.926;7.080;2023-03-23T07:44:50;12.90;76.00
10133;DHT22;5106;50.926;7.080;2023-03-23T07:47:16;12.90;75.20
10133;DHT22;5106;50.926;7.080;2023-03-23T07:49:43;13.00;76.40
10133;DHT22;5106;50.926;7.080;2023-03-23T07:52:09;13.00;76.10
10133;DHT22;5106;50.926;7.080;2023-03-23T07:54:36;13.00;75.00
10133;DHT22;5106;50.926;7.080;2023-03-23T07:57:01;13.10;75.70
10133;DHT22;5106;50.926;7.080;2023-03-23T07:59:27;13.10;75.30
10133;DHT22;5106;50.926;7.080;2023-03-23T08:01:53;13.20;74.80
10133;DHT22;5106;50.926;7.080;2023-03-23T08:04:18;13.20;75.40
10133;DHT22;5106;50.926;7.080;2023-03-23T08:06:44;13.20;75.20
10133;DHT22;5106;50.926;7.080;2023-03-23T08:09:10;13.30;74.60
10133;DHT22;5106;50.926;7.080;2023-03-23T08:11:37;13.30;74.30
10133;DHT22;5106;50.926;7.080;2023-03-23T08:14:04;13.40;74.30
10133;DHT22;5106;50.926;7.080;2023-03-23T08:16:31;13.40;74.50
10133;DHT22;5106;50.926;7.080;2023-03-23T08:18:57;13.40;74.40
10133;DHT22;5106;50.926;7.080;2023-03-23T08:21:23;13.50;74.90
10133;DHT22;5106;50.926;7.080;2023-03-23T08:23:48;13.50;74.80
10133;DHT22;5106;50.926;7.080;2023-03-23T08:26:14;13.50;74.30
10133;DHT22;5106;50.926;7.080;2023-03-23T08:28:41;13.50;73.60
10133;DHT22;5106;50.926;7.080;2023-03-23T08:31:12;13.50;73.80
10133;DHT22;5106;50.926;7.080;2023-03-23T08:33:38;13.50;73.60
10133;DHT22;5106;50.926;7.080;2023-03-23T08:36:05;13.60;73.90
10133;DHT22;5106;50.926;7.080;2023-03-23T08:38:31;13.60;73.90
10133;DHT22;5106;50.926;7.080;2023-03-23T08:41:01;13.60;73.50
10133;DHT22;5106;50.926;7.080;2023-03-23T08:43:28;13.60;73.00
10133;DHT22;5106;50.926;7.080;2023-03-23T08:45:54;13.70;72.60
10133;DHT22;5106;50.926;7.080;2023-03-23T08:48:20;13.70;73.60
10133;DHT22;5106;50.926;7.080;2023-03-23T08:50:46;13.80;73.30
10133;DHT22;5106;50.926;7.080;2023-03-23T08:53:12;13.80;73.00
10133;DHT22;5106;50.926;7.080;2023-03-23T08:55:38;13.80;73.50
10133;DHT22;5106;50.926;7.080;2023-03-23T08:58:05;13.80;73.00
10133;DHT22;5106;50.926;7.080;2023-03-23T09:00:31;13.90;72.50
10133;DHT22;5106;50.926;7.080;2023-03-23T09:02:58;13.90;73.10
10133;DHT22;5106;50.926;7.080;2023-03-23T09:05:26;14.00;72.70
10133;DHT22;5106;50.926;7.080;2023-03-23T09:07:54;14.00;73.00
10133;DHT22;5106;50.926;7.080;2023-03-23T09:10:21;14.00;72.50
10133;DHT22;5106;50.926;7.080;2023-03-23T09:12:47;14.00;72.80
10133;DHT22;5106;50.926;7.080;2023-03-23T09:15:16;14.00;72.50
10133;DHT22;5106;50.926;7.080;2023-03-23T09:17:46;13.90;72.50
10133;DHT22;5106;50.926;7.080;2023-03-23T09:20:14;14.00;73.30
10133;DHT22;5106;50.926;7.080;2023-03-23T09:22:44;14.00;73.00
10133;DHT22;5106;50.926;7.080;2023-03-23T09:25:13;14.10;72.90
10133;DHT22;5106;50.926;7.080;2023-03-23T09:27:41;14.20;72.10
10133;DHT22;5106;50.926;7.080;2023-03-23T09:30:09;14.30;71.80
10133;DHT22;5106;50.926;7.080;2023-03-23T09:32:36;14.30;71.60
10133;DHT22;5106;50.926;7.080;2023-03-23T09:35:03;14.40;71.00
10133;DHT22;5106;50.926;7.080;2023-03-23T09:37:30;14.50;71.20
10133;DHT22;5106;50.926;7.080;2023-03-23T09:39:55;14.50;71.20
10133;DHT22;5106;50.926;7.080;2023-03-23T09:42:52;14.60;71.30
10133;DHT22;5106;50.926;7.080;2023-03-23T09:50:31;14.50;69.30
10133;DHT22;5106;50.926;7.080;2023-03-23T09:53:13;14.50;69.30
10133;DHT22;5106;50.926;7.080;2023-03-23T09:55:40;14.30;68.50
10133;DHT22;5106;50.926;7.080;2023-03-23T09:58:23;14.30;69.50
10133;DHT22;5106;50.926;7.080;2023-03-23T10:03:22;14.20;69.20
10133;DHT22;5106;50.926;7.080;2023-03-23T10:05:52;14.10;68.90
10133;DHT22;5106;50.926;7.080;2023-03-23T10:08:21;14.10;69.00
10133;DHT22;5106;50.926;7.080;2023-03-23T10:16:28;14.20;69.70
10133;DHT22;5106;50.926;7.080;2023-03-23T10:21:24;14.30;70.00
10133;DHT22;5106;50.926;7.080;2023-03-23T10:23:59;14.40;70.10
10133;DHT22;5106;50.926;7.080;2023-03-23T10:26:34;14.50;70.90
10133;DHT22;5106;50.926;7.080;2023-03-23T10:29:31;14.60;70.30
10133;DHT22;5106;50.926;7.080;2023-03-23T10:32:15;14.70;71.40
10133;DHT22;5106;50.926;7.080;2023-03-23T10:34:47;14.80;71.30
10133;DHT22;5106;50.926;7.080;2023-03-23T10:37:19;14.70;71.70
10133;DHT22;5106;50.926;7.080;2023-03-23T10:39:52;14.60;71.90
10133;DHT22;5106;50.926;7.080;2023-03-23T10:42:39;14.50;71.90
10133;DHT22;5106;50.926;7.080;2023-03-23T10:45:17;14.40;72.40
10133;DHT22;5106;50.926;7.080;2023-03-23T10:50:28;14.40;73.10
10133;DHT22;5106;50.926;7.080;2023-03-23T10:52:57;14.30;73.60
10133;DHT22;5106;50.926;7.080;2023-03-23T10:55:24;14.30;73.00
10133;DHT22;5106;50.926;7.080;2023-03-23T10:58:02;14.40;73.40
10133;DHT22;5106;50.926;7.080;2023-03-23T11:00:29;14.40;73.40
10133;DHT22;5106;50.926;7.080;2023-03-23T11:05:35;14.40;73.70
10133;DHT22;5106;50.926;7.080;2023-03-23T11:08:01;14.40;73.50
10133;DHT22;5106;50.926;7.080;2023-03-23T11:13:16;14.70;74.20
10133;DHT22;5106;50.926;7.080;2023-03-23T11:15:44;14.80;73.70
10133;DHT22;5106;50.926;7.080;2023-03-23T11:18:21;14.90;73.30
10133;DHT22;5106;50.926;7.080;2023-03-23T11:20:56;15.00;73.70
10133;DHT22;5106;50.926;7.080;2023-03-23T11:23:37;15.10;73.00
10133;DHT22;5106;50.926;7.080;2023-03-23T11:28:41;15.30;72.90
10133;DHT22;5106;50.926;7.080;2023-03-23T11:31:09;15.30;72.20
10133;DHT22;5106;50.926;7.080;2023-03-23T11:33:38;15.30;71.80
10133;DHT22;5106;50.926;7.080;2023-03-23T11:36:06;15.30;72.80
10133;DHT22;5106;50.926;7.080;2023-03-23T11:38:33;15.20;72.20
10133;DHT22;5106;50.926;7.080;2023-03-23T11:40:59;15.10;72.20
10133;DHT22;5106;50.926;7.080;2023-03-23T11:43:26;15.10;72.80
10133;DHT22;5106;50.926;7.080;2023-03-23T11:46:22;15.00;72.20
10133;DHT22;5106;50.926;7.080;2023-03-23T11:48:58;15.00;72.80
10133;DHT22;5106;50.926;7.080;2023-03-23T11:51:45;15.00;72.60
10133;DHT22;5106;50.926;7.080;2023-03-23T11:54:34;15.00;72.90
10133;DHT22;5106;50.926;7.080;2023-03-23T11:57:07;14.90;72.90
10133;DHT22;5106;50.926;7.080;2023-03-23T11:59:35;14.90;73.80
10133;DHT22;5106;50.926;7.080;2023-03-23T12:02:32;14.80;73.80
10133;DHT22;5106;50.926;7.080;2023-03-23T12:05:29;14.70;73.20
10133;DHT22;5106;50.926;7.080;2023-03-23T12:19:06;14.70;73.60
10133;DHT22;5106;50.926;7.080;2023-03-23T12:22:05;14.70;72.80
10133;DHT22;5106;50.926;7.080;2023-03-23T12:28:07;14.90;72.70
10133;DHT22;5106;50.926;7.080;2023-03-23T12:30:57;15.00;73.10
10133;DHT22;5106;50.926;7.080;2023-03-23T12:41:31;15.30;72.20
10133;DHT22;5106;50.926;7.080;2023-03-23T12:44:03;15.30;71.50
10133;DHT22;5106;50.926;7.080;2023-03-23T12:49:54;15.30;72.20
10133;DHT22;5106;50.926;7.080;2023-03-23T12:55:09;15.20;71.60
10133;DHT22;5106;50.926;7.080;2023-03-23T13:05:53;15.00;71.20
10133;DHT22;5106;50.926;7.080;2023-03-23T13:08:32;15.00;71.60
10133;DHT22;5106;50.926;7.080;2023-03-23T13:11:04;15.00;71.10
10133;DHT22;5106;50.926;7.080;2023-03-23T13:21:32;15.20;71.00
10133;DHT22;5106;50.926;7.080;2023-03-23T13:24:03;15.30;71.30
10133;DHT22;5106;50.926;7.080;2023-03-23T13:26:30;15.30;71.20
10133;DHT22;5106;50.926;7.080;2023-03-23T13:28:58;15.30;71.30
10133;DHT22;5106;50.926;7.080;2023-03-23T13:31:35;15.30;71.00
10133;DHT22;5106;50.926;7.080;2023-03-23T13:34:24;15.30;71.30
10133;DHT22;5106;50.926;7.080;2023-03-23T13:37:02;15.30;70.60
10133;DHT22;5106;50.926;7.080;2023-03-23T13:39:35;15.20;71.30
10133;DHT22;5106;50.926;7.080;2023-03-23T13:50:12;15.10;70.90
10133;DHT22;5106;50.926;7.080;2023-03-23T13:53:01;15.10;70.50
10133;DHT22;5106;50.926;7.080;2023-03-23T13:55:46;15.10;70.90
10133;DHT22;5106;50.926;7.080;2023-03-23T13:58:23;15.00;70.80
10133;DHT22;5106;50.926;7.080;2023-03-23T14:01:01;15.10;71.00
10133;DHT22;5106;50.926;7.080;2023-03-23T14:03:37;15.10;70.90
10133;DHT22;5106;50.926;7.080;2023-03-23T14:06:07;15.20;71.20
10133;DHT22;5106;50.926;7.080;2023-03-23T14:08:45;15.20;70.80
10133;DHT22;5106;50.926;7.080;2023-03-23T14:13:42;15.30;70.90
10133;DHT22;5106;50.926;7.080;2023-03-23T14:16:18;15.30;70.70
10133;DHT22;5106;50.926;7.080;2023-03-23T14:18:53;15.30;71.90
10133;DHT22;5106;50.926;7.080;2023-03-23T14:24:03;15.30;70.80
10133;DHT22;5106;50.926;7.080;2023-03-23T14:26:29;15.30;71.70
10133;DHT22;5106;50.926;7.080;2023-03-23T14:28:59;15.30;71.60
10133;DHT22;5106;50.926;7.080;2023-03-23T14:31:25;15.30;71.40
10133;DHT22;5106;50.926;7.080;2023-03-23T14:33:54;15.30;71.10
10133;DHT22;5106;50.926;7.080;2023-03-23T14:36:26;15.30;71.50
10133;DHT22;5106;50.926;7.080;2023-03-23T14:39:28;15.20;70.60
10133;DHT22;5106;50.926;7.080;2023-03-23T14:41:56;15.20;71.20
10133;DHT22;5106;50.926;7.080;2023-03-23T14:44:30;15.20;71.80
10133;DHT22;5106;50.926;7.080;2023-03-23T14:46:58;15.20;71.00
10133;DHT22;5106;50.926;7.080;2023-03-23T14:49:35;15.20;71.80
10133;DHT22;5106;50.926;7.080;2023-03-23T14:52:11;15.10;72.10
10133;DHT22;5106;50.926;7.080;2023-03-23T14:54:37;15.10;71.30
10133;DHT22;5106;50.926;7.080;2023-03-23T14:57:18;15.10;71.20
10133;DHT22;5106;50.926;7.080;2023-03-23T14:59:47;15.10;71.60
10133;DHT22;5106;50.926;7.080;2023-03-23T15:02:35;15.10;71.30
10133;DHT22;5106;50.926;7.080;2023-03-23T15:05:17;15.00;73.30
10133;DHT22;5106;50.926;7.080;2023-03-23T15:07:46;14.70;75.60
10133;DHT22;5106;50.926;7.080;2023-03-23T15:10:17;14.50;77.00
10133;DHT22;5106;50.926;7.080;2023-03-23T15:12:45;14.40;76.50
10133;DHT22;5106;50.926;7.080;2023-03-23T15:15:21;14.30;77.60
10133;DHT22;5106;50.926;7.080;2023-03-23T15:17:47;14.40;76.00
10133;DHT22;5106;50.926;7.080;2023-03-23T15:20:26;14.40;75.30
10133;DHT22;5106;50.926;7.080;2023-03-23T15:22:52;14.60;74.90
10133;DHT22;5106;50.926;7.080;2023-03-23T15:25:30;14.90;75.50
10133;DHT22;5106;50.926;7.080;2023-03-23T15:28:18;15.30;74.50
10133;DHT22;5106;50.926;7.080;2023-03-23T15:30:57;15.80;72.30
10133;DHT22;5106;50.926;7.080;2023-03-23T15:33:24;16.00;71.50
10133;DHT22;5106;50.926;7.080;2023-03-23T15:35:54;16.10;71.70
10133;DHT22;5106;50.926;7.080;2023-03-23T15:38:22;16.20;70.90
10133;DHT22;5106;50.926;7.080;2023-03-23T15:40:52;16.30;70.50
10133;DHT22;5106;50.926;7.080;2023-03-23T15:46:23;16.40;69.50
10133;DHT22;5106;50.926;7.080;2023-03-23T15:51:28;16.40;68.70
10133;DHT22;5106;50.926;7.080;2023-03-23T15:53:56;16.50;68.50
10133;DHT22;5106;50.926;7.080;2023-03-23T15:56:22;16.80;69.00
10133;DHT22;5106;50.926;7.080;2023-03-23T15:58:48;17.00;67.90
10133;DHT22;5106;50.926;7.080;2023-03-23T16:01:25;17.00;67.30
10133;DHT22;5106;50.926;7.080;2023-03-23T16:06:31;17.20;66.90
10133;DHT22;5106;50.926;7.080;2023-03-23T16:08:57;17.40;66.60
10133;DHT22;5106;50.926;7.080;2023-03-23T16:11:26;17.50;65.80
10133;DHT22;5106;50.926;7.080;2023-03-23T16:13:52;17.70;64.70
10133;DHT22;5106;50.926;7.080;2023-03-23T16:16:22;17.70;65.20
10133;DHT22;5106;50.926;7.080;2023-03-23T16:18:48;17.90;65.10
10133;DHT22;5106;50.926;7.080;2023-03-23T16:21:14;17.80;64.50
10133;DHT22;5106;50.926;7.080;2023-03-23T16:23:40;17.50;64.30
10133;DHT22;5106;50.926;7.080;2023-03-23T16:26:09;17.20;65.00
10133;DHT22;5106;50.926;7.080;2023-03-23T16:28:35;17.00;66.10
10133;DHT22;5106;50.926;7.080;2023-03-23T16:31:00;16.80;66.40
10133;DHT22;5106;50.926;7.080;2023-03-23T16:33:26;16.70;67.20
10133;DHT22;5106;50.926;7.080;2023-03-23T16:35:51;16.60;66.20
10133;DHT22;5106;50.926;7.080;2023-03-23T16:38:17;16.40;66.70
10133;DHT22;5106;50.926;7.080;2023-03-23T16:40:44;16.30;66.60
10133;DHT22;5106;50.926;7.080;2023-03-23T16:43:10;16.20;66.90
10133;DHT22;5106;50.926;7.080;2023-03-23T16:45:38;16.10;67.00
10133;DHT22;5106;50.926;7.080;2023-03-23T16:48:04;16.00;66.10
10133;DHT22;5106;50.926;7.080;2023-03-23T16:50:30;15.90;67.20
10133;DHT22;5106;50.926;7.080;2023-03-23T16:52:56;15.80;66.60
10133;DHT22;5106;50.926;7.080;2023-03-23T16:55:22;15.80;67.30
10133;DHT22;5106;50.926;7.080;2023-03-23T16:57:50;15.70;66.80
10133;DHT22;5106;50.926;7.080;2023-03-23T17:00:17;15.60;67.40
10133;DHT22;5106;50.926;7.080;2023-03-23T17:02:49;15.50;67.20
10133;DHT22;5106;50.926;7.080;2023-03-23T17:05:18;15.40;66.90
10133;DHT22;5106;50.926;7.080;2023-03-23T17:07:44;15.40;67.90
10133;DHT22;5106;50.926;7.080;2023-03-23T17:10:11;15.40;67.40
10133;DHT22;5106;50.926;7.080;2023-03-23T17:12:37;15.30;67.80
10133;DHT22;5106;50.926;7.080;2023-03-23T17:15:03;15.30;68.30
10133;DHT22;5106;50.926;7.080;2023-03-23T17:17:29;15.20;68.50
10133;DHT22;5106;50.926;7.080;2023-03-23T17:19:55;15.10;69.00
10133;DHT22;5106;50.926;7.080;2023-03-23T17:22:22;15.10;68.70
10133;DHT22;5106;50.926;7.080;2023-03-23T17:24:47;15.00;68.10
10133;DHT22;5106;50.926;7.080;2023-03-23T17:27:15;15.00;68.40
10133;DHT22;5106;50.926;7.080;2023-03-23T17:29:42;14.90;69.10
10133;DHT22;5106;50.926;7.080;2023-03-23T17:32:07;14.80;69.60
10133;DHT22;5106;50.926;7.080;2023-03-23T17:34:33;14.70;69.60
10133;DHT22;5106;50.926;7.080;2023-03-23T17:36:59;14.70;69.00
10133;DHT22;5106;50.926;7.080;2023-03-23T17:39:24;14.60;69.30
10133;DHT22;5106;50.926;7.080;2023-03-23T17:41:50;14.60;69.00
10133;DHT22;5106;50.926;7.080;2023-03-23T17:44:16;14.50;69.70
10133;DHT22;5106;50.926;7.080;2023-03-23T17:46:41;14.50;69.60
10133;DHT22;5106;50.926;7.080;2023-03-23T17:49:07;14.40;70.20
10133;DHT22;5106;50.926;7.080;2023-03-23T17:51:32;14.30;70.40
10133;DHT22;5106;50.926;7.080;2023-03-23T17:53:58;14.30;70.50